createdAt,value
2018-08-23T00:01:26.307Z,7.17
2018-08-23T00:03:56.186Z,7.53
2018-08-23T00:06:24.697Z,7.40
2018-08-23T00:08:53.455Z,15.00
2018-08-23T00:11:25.612Z,11.30
2018-08-23T00:13:54.199Z,13.20
2018-08-23T00:16:33.843Z,11.37
2018-08-23T00:19:03.574Z,14.13
2018-08-23T00:21:32.283Z,10.97
2018-08-23T00:24:06.272Z,10.00
2018-08-23T00:26:35.421Z,10.83
2018-08-23T00:29:04.032Z,11.43
2018-08-23T00:31:36.827Z,9.67
2018-08-23T00:34:05.301Z,10.83
2018-08-23T00:36:35.178Z,9.20
2018-08-23T00:39:05.125Z,9.53
2018-08-23T00:41:33.573Z,9.97
2018-08-23T00:44:02.101Z,10.27
2018-08-23T00:46:30.619Z,10.23
2018-08-23T00:48:59.090Z,11.40
2018-08-23T00:51:27.562Z,9.43
2018-08-23T00:54:01.319Z,9.13
2018-08-23T00:56:29.761Z,11.37
2018-08-23T00:59:00.963Z,10.00
2018-08-23T01:01:29.719Z,11.90
2018-08-23T01:03:58.226Z,10.60
2018-08-23T01:06:41.016Z,12.27
2018-08-23T01:09:10.762Z,11.57
2018-08-23T01:11:39.212Z,10.00
2018-08-23T01:14:09.278Z,11.07
2018-08-23T01:16:37.756Z,11.03
2018-08-23T01:19:11.530Z,12.77
2018-08-23T01:21:49.087Z,12.27
2018-08-23T01:24:17.576Z,10.50
2018-08-23T01:26:46.002Z,10.40
2018-08-23T01:29:25.896Z,10.67
2018-08-23T01:31:55.635Z,12.67
2018-08-23T01:34:24.138Z,11.60
2018-08-23T01:36:52.613Z,17.60
2018-08-23T01:39:21.054Z,12.80
2018-08-23T01:41:49.543Z,13.63
2018-08-23T01:44:18.059Z,13.03
2018-08-23T01:46:46.542Z,16.33
2018-08-23T01:49:15.021Z,15.27
2018-08-23T01:51:43.489Z,16.40
2018-08-23T01:54:11.946Z,14.43
2018-08-23T01:56:40.375Z,15.53
2018-08-23T01:59:08.895Z,17.50
2018-08-23T02:01:37.371Z,14.83
2018-08-23T02:04:06.222Z,16.63
2018-08-23T02:06:35.916Z,19.67
2018-08-23T02:09:06.986Z,15.60
2018-08-23T02:11:35.482Z,15.77
2018-08-23T02:14:03.958Z,15.07
2018-08-23T02:16:44.326Z,15.30
2018-08-23T02:19:12.785Z,17.90
2018-08-23T02:21:41.246Z,16.27
2018-08-23T02:24:09.787Z,16.97
2018-08-23T02:26:38.571Z,15.63
2018-08-23T02:29:07.113Z,15.90
2018-08-23T02:31:35.531Z,16.90
2018-08-23T02:34:04.076Z,16.17
2018-08-23T02:36:32.521Z,17.90
2018-08-23T02:39:05.332Z,18.80
2018-08-23T02:41:33.833Z,17.33
2018-08-23T02:44:02.287Z,18.47
2018-08-23T02:46:32.227Z,22.67
2018-08-23T02:49:01.607Z,21.80
2018-08-23T02:51:41.215Z,18.43
2018-08-23T02:54:11.830Z,16.63
2018-08-23T02:56:40.930Z,20.83
2018-08-23T02:59:09.521Z,19.23
2018-08-23T03:01:41.416Z,19.23
2018-08-23T03:04:12.562Z,19.63
2018-08-23T03:07:12.620Z,17.17
2018-08-23T03:09:44.838Z,25.23
2018-08-23T03:12:18.078Z,18.97
2018-08-23T03:14:46.902Z,21.10
2018-08-23T03:17:22.286Z,24.63
2018-08-23T03:20:16.466Z,22.37
2018-08-23T03:22:46.117Z,23.23
2018-08-23T03:25:17.086Z,21.23
2018-08-23T03:27:45.561Z,23.10
2018-08-23T03:30:15.262Z,22.67
2018-08-23T03:32:43.706Z,26.70
2018-08-23T03:35:12.289Z,22.47
2018-08-23T03:37:40.796Z,26.53
2018-08-23T03:40:10.832Z,25.50
2018-08-23T03:42:39.408Z,26.73
2018-08-23T03:45:13.146Z,39.77
2018-08-23T03:47:46.899Z,32.17
2018-08-23T03:50:15.445Z,31.80
2018-08-23T03:52:48.111Z,31.03
2018-08-23T03:55:19.823Z,32.93
2018-08-23T03:57:53.398Z,33.30
2018-08-23T04:00:27.363Z,37.87
2018-08-23T04:02:56.215Z,36.27
2018-08-23T04:05:24.706Z,33.43
2018-08-23T04:07:53.172Z,38.27
2018-08-23T04:10:21.687Z,31.90
2018-08-23T04:12:50.140Z,34.93
2018-08-23T04:15:27.005Z,36.13
2018-08-23T04:17:55.374Z,36.67
2018-08-23T04:20:23.836Z,41.90
2018-08-23T04:22:52.362Z,39.50
2018-08-23T04:25:20.802Z,43.80
2018-08-23T04:27:49.327Z,42.43
2018-08-23T04:30:17.826Z,43.53
2018-08-23T04:32:47.542Z,52.03
2018-08-23T04:35:26.184Z,44.67
2018-08-23T04:37:54.673Z,51.30
2018-08-23T04:40:23.165Z,46.57
2018-08-23T04:42:51.649Z,53.70
2018-08-23T04:45:26.122Z,48.07
2018-08-23T04:48:14.227Z,57.10
2018-08-23T04:50:42.663Z,52.00
2018-08-23T04:53:11.135Z,57.57
2018-08-23T04:55:39.594Z,51.77
2018-08-23T04:58:08.156Z,52.83
2018-08-23T05:00:36.632Z,54.07
2018-08-23T05:03:05.165Z,52.17
2018-08-23T05:05:33.672Z,56.30
2018-08-23T05:08:03.653Z,54.90
2018-08-23T05:10:32.174Z,60.03
2018-08-23T05:13:00.681Z,60.67
2018-08-23T05:15:29.173Z,60.30
2018-08-23T05:18:02.163Z,60.63
2018-08-23T05:20:32.228Z,61.30
2018-08-23T05:23:03.791Z,72.77
2018-08-23T05:25:32.265Z,71.70
2018-08-23T05:28:10.889Z,75.63
2018-08-23T05:30:39.427Z,82.77
2018-08-23T05:33:14.897Z,82.03
2018-08-23T05:35:43.431Z,76.93
2018-08-23T05:38:12.661Z,80.33
2018-08-23T05:40:46.397Z,78.90
2018-08-23T05:43:15.715Z,79.33
2018-08-23T05:45:57.504Z,80.20
2018-08-23T05:48:32.521Z,75.33
2018-08-23T05:51:05.204Z,74.37
2018-08-23T05:53:35.463Z,71.10
2018-08-23T05:56:04.339Z,79.43
2018-08-23T05:58:33.559Z,73.03
2018-08-23T06:01:02.475Z,69.97
2018-08-23T06:03:31.359Z,70.70
2018-08-23T06:06:00.352Z,73.33
2018-08-23T06:08:28.854Z,65.97
2018-08-23T06:11:03.428Z,67.90
2018-08-23T06:13:32.244Z,60.77
2018-08-23T06:16:01.117Z,56.20
2018-08-23T06:18:29.669Z,59.33
2018-08-23T06:20:59.133Z,56.40
2018-08-23T06:24:01.901Z,55.20
2018-08-23T06:26:43.458Z,52.50
2018-08-23T06:29:16.081Z,54.43
2018-08-23T06:32:11.213Z,53.30
2018-08-23T06:34:45.443Z,46.33
2018-08-23T06:37:14.299Z,45.60
2018-08-23T06:39:43.174Z,50.83
2018-08-23T06:42:12.095Z,46.37
2018-08-23T06:44:48.368Z,43.00
2018-08-23T06:47:18.996Z,45.37
2018-08-23T06:49:48.738Z,46.00
2018-08-23T06:52:29.199Z,45.03
2018-08-23T06:54:58.706Z,43.10
2018-08-23T06:57:29.443Z,49.57
2018-08-23T06:59:58.025Z,45.47
2018-08-23T07:02:26.679Z,38.17
2018-08-23T07:04:55.247Z,36.93
2018-08-23T07:07:24.183Z,36.43
2018-08-23T07:09:52.736Z,45.00
2018-08-23T07:12:22.106Z,42.07
2018-08-23T07:14:51.196Z,38.87
2018-08-23T07:17:27.427Z,37.43
2018-08-23T07:20:00.008Z,36.10
2018-08-23T07:22:31.338Z,41.43
2018-08-23T07:24:59.921Z,41.00
2018-08-23T07:27:28.392Z,38.23
2018-08-23T07:29:58.100Z,36.83
2018-08-23T07:32:29.014Z,44.30
2018-08-23T07:35:18.055Z,43.00
2018-08-23T07:37:47.964Z,34.53
2018-08-23T07:40:17.633Z,37.97
2018-08-23T07:42:47.392Z,39.63
2018-08-23T07:45:16.801Z,40.60
2018-08-23T07:47:47.379Z,35.53
2018-08-23T07:50:15.937Z,39.53
2018-08-23T07:52:45.752Z,38.37
2018-08-23T07:55:14.235Z,40.37
2018-08-23T07:57:43.101Z,38.30
2018-08-23T08:00:37.073Z,39.30
2018-08-23T08:03:05.730Z,36.87
2018-08-23T08:05:36.886Z,42.80
2018-08-23T08:08:06.512Z,42.13
2018-08-23T08:10:40.042Z,36.33
2018-08-23T08:13:08.562Z,41.97
2018-08-23T08:15:37.043Z,41.20
2018-08-23T08:18:08.346Z,41.07
2018-08-23T08:20:36.828Z,45.43
2018-08-23T08:23:05.393Z,40.23
2018-08-23T08:25:33.890Z,36.53
2018-08-23T08:28:02.583Z,40.03
2018-08-23T08:30:40.777Z,39.77
2018-08-23T08:33:11.551Z,40.47
2018-08-23T08:35:42.232Z,46.57
2018-08-23T08:38:10.944Z,41.87
2018-08-23T08:40:39.443Z,41.10
2018-08-23T08:43:07.983Z,43.27
2018-08-23T08:45:36.463Z,48.07
2018-08-23T08:48:13.539Z,50.30
2018-08-23T08:51:50.787Z,39.33
2018-08-23T08:54:19.242Z,41.00
2018-08-23T08:56:49.543Z,41.77
2018-08-23T08:59:18.103Z,40.70
2018-08-23T09:01:46.586Z,36.43
2018-08-23T09:04:20.540Z,40.63
2018-08-23T09:06:49.083Z,44.40
2018-08-23T09:09:27.029Z,39.00
2018-08-23T09:11:58.090Z,31.63
2018-08-23T09:14:26.610Z,31.47
2018-08-23T09:16:55.235Z,34.80
2018-08-23T09:20:31.867Z,39.70
2018-08-23T09:23:00.368Z,31.53
2018-08-23T09:25:34.326Z,39.80
2018-08-23T09:28:03.126Z,34.83
2018-08-23T09:30:32.766Z,32.93
2018-08-23T09:33:06.594Z,38.00
2018-08-23T09:35:35.479Z,33.87
2018-08-23T09:38:11.737Z,38.17
2018-08-23T09:40:40.231Z,35.17
2018-08-23T09:43:08.796Z,35.40
2018-08-23T09:45:37.997Z,30.97
2018-08-23T09:48:06.747Z,36.20
2018-08-23T09:50:35.371Z,29.47
2018-08-23T09:53:09.825Z,32.27
2018-08-23T09:55:38.398Z,33.97
2018-08-23T09:58:11.288Z,32.00
2018-08-23T10:00:45.522Z,34.03
2018-08-23T10:03:19.376Z,37.70
2018-08-23T10:05:53.475Z,30.93
2018-08-23T10:08:27.426Z,36.23
2018-08-23T10:11:01.712Z,33.03
2018-08-23T10:13:37.146Z,29.30
2018-08-23T10:16:11.188Z,33.07
2018-08-23T10:18:44.886Z,33.00
2018-08-23T10:21:15.571Z,28.20
2018-08-23T10:23:44.074Z,28.80
2018-08-23T10:26:29.520Z,30.00
2018-08-23T10:28:58.087Z,25.73
2018-08-23T10:31:26.875Z,26.13
2018-08-23T10:33:55.492Z,31.57
2018-08-23T10:36:24.031Z,32.60
2018-08-23T10:38:52.575Z,27.43
2018-08-23T10:41:21.215Z,34.37
2018-08-23T10:43:49.826Z,28.73
2018-08-23T10:46:18.328Z,30.80
2018-08-23T10:48:46.840Z,30.87
2018-08-23T10:51:15.365Z,34.03
2018-08-23T10:53:43.833Z,29.07
2018-08-23T10:56:12.327Z,35.50
2018-08-23T10:58:40.859Z,31.03
2018-08-23T11:01:09.624Z,33.70
2018-08-23T11:03:38.391Z,27.07
2018-08-23T11:06:06.957Z,30.10
2018-08-23T11:08:36.936Z,25.93
2018-08-23T11:11:10.761Z,24.57
2018-08-23T11:13:44.780Z,29.90
2018-08-23T11:16:18.659Z,33.97
2018-08-23T11:18:52.486Z,32.60
2018-08-23T11:21:21.003Z,31.33
2018-08-23T11:23:49.502Z,33.13
2018-08-23T11:26:19.706Z,37.53
2018-08-23T11:28:48.858Z,30.57
2018-08-23T11:31:22.787Z,29.07
2018-08-23T11:33:51.379Z,24.83
2018-08-23T11:36:19.951Z,36.47
2018-08-23T11:38:48.592Z,34.80
2018-08-23T11:41:17.129Z,31.73
2018-08-23T11:43:45.706Z,35.70
2018-08-23T11:46:22.231Z,38.40
2018-08-23T11:48:50.864Z,36.43
2018-08-23T11:51:19.865Z,29.70
2018-08-23T11:53:48.623Z,28.27
2018-08-23T11:56:17.099Z,25.97
2018-08-23T11:58:45.761Z,33.07
2018-08-23T12:01:15.773Z,27.97
2018-08-23T12:03:44.702Z,28.37
2018-08-23T12:06:14.366Z,24.67
2018-08-23T12:08:43.387Z,29.17
2018-08-23T12:11:11.900Z,32.97
2018-08-23T12:13:44.975Z,32.40
2018-08-23T12:16:13.443Z,31.40
2018-08-23T12:18:41.970Z,27.77
2018-08-23T12:21:10.570Z,25.93
2018-08-23T12:23:39.083Z,27.73
2018-08-23T12:26:07.593Z,24.63
2018-08-23T12:28:41.526Z,36.53
2018-08-23T12:31:10.047Z,30.80
2018-08-23T12:33:38.551Z,29.13
2018-08-23T12:36:08.515Z,24.50
2018-08-23T12:38:42.438Z,23.03
2018-08-23T12:41:16.399Z,22.60
2018-08-23T12:43:45.787Z,24.77
2018-08-23T12:46:15.027Z,22.63
2018-08-23T12:48:43.649Z,24.37
2018-08-23T12:51:12.205Z,19.60
2018-08-23T12:53:40.743Z,20.87
2018-08-23T12:56:09.345Z,18.73
2018-08-23T12:58:37.955Z,19.37
2018-08-23T13:01:06.491Z,16.60
2018-08-23T13:03:35.075Z,17.60
2018-08-23T13:06:03.593Z,16.40
2018-08-23T13:08:32.207Z,16.43
2018-08-23T13:11:00.768Z,15.57
2018-08-23T13:13:29.273Z,18.03
2018-08-23T13:15:57.810Z,17.20
2018-08-23T13:18:26.458Z,13.33
2018-08-23T13:20:55.003Z,12.07
2018-08-23T13:23:23.485Z,16.00
2018-08-23T13:25:55.506Z,17.30
2018-08-23T13:28:24.805Z,21.80
2018-08-23T13:30:53.431Z,18.03
2018-08-23T13:33:22.217Z,12.77
2018-08-23T13:35:50.750Z,13.33
2018-08-23T13:38:19.740Z,13.17
2018-08-23T13:40:48.421Z,10.43
2018-08-23T13:43:16.925Z,14.83
2018-08-23T13:45:45.656Z,10.47
2018-08-23T13:48:14.166Z,10.33
2018-08-23T13:50:42.655Z,10.60
2018-08-23T13:53:11.158Z,11.40
2018-08-23T13:55:39.816Z,13.63
2018-08-23T13:58:08.503Z,16.23
2018-08-23T14:00:39.260Z,9.77
2018-08-23T14:03:08.713Z,14.50
2018-08-23T14:05:38.154Z,9.80
2018-08-23T14:08:06.802Z,8.57
2018-08-23T14:10:35.438Z,8.77
2018-08-23T14:13:04.101Z,8.88
2018-08-23T14:15:37.922Z,9.67
2018-08-23T14:18:06.606Z,13.67
2018-08-23T14:20:35.257Z,11.03
2018-08-23T14:23:04.000Z,16.93
2018-08-23T14:25:32.553Z,12.10
2018-08-23T14:28:01.083Z,19.23
2018-08-23T14:30:29.563Z,16.00
2018-08-23T14:32:58.080Z,14.43
2018-08-23T14:35:26.585Z,19.60
2018-08-23T14:37:56.107Z,23.00
2018-08-23T14:40:24.648Z,20.07
2018-08-23T14:42:53.177Z,22.57
2018-08-23T14:45:29.602Z,22.33
2018-08-23T14:48:03.356Z,15.23
2018-08-23T14:50:33.236Z,14.60
2018-08-23T14:53:01.748Z,14.73
2018-08-23T14:55:35.924Z,17.00
2018-08-23T14:58:04.468Z,14.67
2018-08-23T15:00:33.001Z,13.10
2018-08-23T15:03:01.687Z,14.17
2018-08-23T15:05:30.188Z,14.57
2018-08-23T15:07:58.868Z,15.50
2018-08-23T15:10:27.336Z,22.50
2018-08-23T15:12:55.838Z,13.50
2018-08-23T15:15:29.827Z,13.97
2018-08-23T15:17:58.304Z,16.00
2018-08-23T15:20:26.826Z,17.67
2018-08-23T15:22:55.336Z,14.00
2018-08-23T15:25:23.851Z,16.23
2018-08-23T15:27:52.337Z,15.23
2018-08-23T15:30:20.962Z,13.60
2018-08-23T15:32:49.523Z,12.33
2018-08-23T15:35:18.064Z,12.47
2018-08-23T15:37:46.591Z,17.30
2018-08-23T15:40:15.176Z,15.37
2018-08-23T15:42:43.684Z,14.43
2018-08-23T15:45:12.190Z,12.87
2018-08-23T15:47:40.797Z,13.27
2018-08-23T15:50:09.317Z,15.30
2018-08-23T15:52:37.798Z,15.17
2018-08-23T15:55:06.460Z,17.57
2018-08-23T15:57:34.970Z,14.43
2018-08-23T16:00:03.633Z,17.23
2018-08-23T16:02:32.122Z,17.23
2018-08-23T16:05:00.850Z,18.00
2018-08-23T16:07:29.375Z,17.50
2018-08-23T16:09:57.983Z,20.13
2018-08-23T16:12:26.709Z,20.57
2018-08-23T16:14:55.229Z,20.80
2018-08-23T16:18:32.771Z,18.97
2018-08-23T16:21:01.569Z,23.70
2018-08-23T16:23:30.045Z,21.83
2018-08-23T16:25:58.618Z,21.43
2018-08-23T16:28:27.082Z,23.53
2018-08-23T16:30:55.582Z,20.20
2018-08-23T16:33:24.095Z,17.87
2018-08-23T16:35:52.620Z,19.00
2018-08-23T16:38:21.526Z,18.33
2018-08-23T16:40:50.134Z,16.90
2018-08-23T16:43:18.652Z,15.40
2018-08-23T16:45:47.168Z,16.03
2018-08-23T16:48:15.646Z,15.13
2018-08-23T16:50:44.243Z,15.57
2018-08-23T16:53:13.111Z,14.90
2018-08-23T16:55:41.591Z,14.83
2018-08-23T16:58:10.157Z,13.97
2018-08-23T17:00:38.730Z,15.50
2018-08-23T17:03:07.240Z,13.70
2018-08-23T17:05:35.723Z,14.53
2018-08-23T17:08:04.281Z,14.47
2018-08-23T17:10:32.843Z,15.13
2018-08-23T17:13:01.343Z,15.83
2018-08-23T17:15:35.222Z,15.53
2018-08-23T17:18:03.827Z,15.37
2018-08-23T17:20:32.291Z,14.53
2018-08-23T17:23:00.826Z,17.20
2018-08-23T17:25:29.332Z,15.03
2018-08-23T17:27:57.828Z,15.33
2018-08-23T17:30:26.311Z,15.33
2018-08-23T17:32:54.851Z,14.87
2018-08-23T17:35:23.381Z,15.13
2018-08-23T17:37:52.028Z,14.90
2018-08-23T17:40:20.512Z,15.00
2018-08-23T17:42:49.154Z,14.57
2018-08-23T17:45:17.660Z,16.37
2018-08-23T17:47:46.304Z,15.37
2018-08-23T17:50:15.045Z,17.83
2018-08-23T17:52:43.554Z,19.03
2018-08-23T17:55:12.216Z,16.90
2018-08-23T17:57:41.200Z,16.80
2018-08-23T18:00:09.908Z,16.07
2018-08-23T18:02:38.406Z,19.00
2018-08-23T18:05:06.961Z,17.73
2018-08-23T18:07:36.110Z,18.73
2018-08-23T18:10:04.729Z,19.53
2018-08-23T18:12:33.255Z,20.10
2018-08-23T18:15:01.748Z,20.53
2018-08-23T18:17:30.215Z,20.97
2018-08-23T18:19:58.743Z,18.00
2018-08-23T18:22:27.292Z,18.13
2018-08-23T18:24:55.779Z,19.00
2018-08-23T18:27:24.286Z,18.17
2018-08-23T18:29:52.857Z,17.77
2018-08-23T18:32:21.376Z,17.73
2018-08-23T18:34:49.925Z,15.07
2018-08-23T18:37:18.631Z,13.23
2018-08-23T18:39:47.293Z,13.83
2018-08-23T18:42:15.750Z,13.00
2018-08-23T18:44:44.379Z,12.80
2018-08-23T18:47:13.284Z,14.37
2018-08-23T18:49:41.949Z,12.40
2018-08-23T18:52:10.484Z,17.13
2018-08-23T18:54:39.063Z,12.77
2018-08-23T18:57:07.541Z,13.97
2018-08-23T18:59:36.313Z,14.33
2018-08-23T19:02:04.820Z,13.67
2018-08-23T19:04:33.503Z,13.37
2018-08-23T19:07:02.106Z,13.43
2018-08-23T19:09:30.950Z,19.23
2018-08-23T19:11:59.502Z,13.10
2018-08-23T19:14:28.074Z,13.13
2018-08-23T19:17:01.855Z,13.30
2018-08-23T19:19:30.383Z,12.70
2018-08-23T19:21:59.456Z,12.20
2018-08-23T19:24:28.019Z,12.83
2018-08-23T19:26:56.506Z,13.23
2018-08-23T19:29:25.059Z,16.20
2018-08-23T19:31:53.582Z,14.83
2018-08-23T19:34:22.126Z,13.73
2018-08-23T19:36:50.634Z,13.57
2018-08-23T19:39:19.149Z,13.83
2018-08-23T19:41:47.690Z,13.70
2018-08-23T19:44:16.221Z,14.77
2018-08-23T19:46:50.013Z,13.93
2018-08-23T19:49:23.875Z,17.37
2018-08-23T19:51:52.378Z,15.13
2018-08-23T19:54:20.926Z,14.53
2018-08-23T19:56:50.554Z,13.87
2018-08-23T19:59:19.126Z,15.07
2018-08-23T20:01:47.612Z,14.83
2018-08-23T20:04:16.139Z,15.50
2018-08-23T20:06:44.756Z,18.00
2018-08-23T20:09:13.419Z,14.40
2018-08-23T20:11:42.090Z,17.67
2018-08-23T20:14:10.612Z,13.77
2018-08-23T20:16:39.138Z,14.03
2018-08-23T20:19:07.621Z,15.17
2018-08-23T20:21:36.131Z,15.07
2018-08-23T20:24:04.643Z,14.77
2018-08-23T20:26:33.156Z,13.83
2018-08-23T20:29:01.648Z,14.67
2018-08-23T20:31:30.158Z,14.43
2018-08-23T20:33:58.701Z,14.73
2018-08-23T20:36:27.300Z,19.27
2018-08-23T20:38:55.779Z,15.13
2018-08-23T20:41:24.296Z,21.17
2018-08-23T20:43:52.799Z,16.77
2018-08-23T20:46:21.331Z,15.60
2018-08-23T20:48:49.847Z,15.10
2018-08-23T20:51:18.486Z,16.30
2018-08-23T20:53:46.956Z,15.47
2018-08-23T20:56:15.492Z,15.77
2018-08-23T20:58:44.086Z,15.47
2018-08-23T21:01:12.627Z,16.53
2018-08-23T21:03:41.189Z,17.40
2018-08-23T21:06:09.760Z,14.77
2018-08-23T21:08:38.244Z,16.43
2018-08-23T21:11:06.795Z,15.53
2018-08-23T21:13:35.672Z,20.20
2018-08-23T21:16:04.221Z,18.40
2018-08-23T21:18:32.741Z,16.97
2018-08-23T21:21:01.479Z,12.97
2018-08-23T21:23:30.020Z,16.50
2018-08-23T21:25:58.513Z,13.40
2018-08-23T21:28:27.068Z,19.20
2018-08-23T21:30:55.539Z,15.87
2018-08-23T21:33:24.077Z,12.73
2018-08-23T21:35:52.561Z,15.07
2018-08-23T21:38:21.095Z,13.73
2018-08-23T21:40:49.736Z,14.27
2018-08-23T21:43:18.266Z,17.83
2018-08-23T21:45:46.756Z,19.43
2018-08-23T21:48:15.602Z,14.73
2018-08-23T21:50:44.089Z,16.53
2018-08-23T21:53:13.548Z,15.67
2018-08-23T21:55:42.411Z,16.00
2018-08-23T21:58:11.561Z,16.93
2018-08-23T22:00:45.750Z,14.60
2018-08-23T22:03:14.668Z,16.93
2018-08-23T22:05:43.468Z,16.80
2018-08-23T22:08:12.332Z,13.27
2018-08-23T22:10:42.278Z,14.77
2018-08-23T22:13:11.226Z,18.67
2018-08-23T22:15:45.127Z,13.50
2018-08-23T22:18:13.728Z,14.30
2018-08-23T22:20:42.454Z,13.57
2018-08-23T22:23:11.289Z,19.80
2018-08-23T22:25:40.812Z,13.90
2018-08-23T22:28:10.277Z,12.30
2018-08-23T22:30:40.078Z,20.77
2018-08-23T22:33:09.711Z,13.20
2018-08-23T22:35:39.786Z,17.60
2018-08-23T22:38:08.891Z,16.43
2018-08-23T22:40:38.352Z,18.67
2018-08-23T22:43:07.153Z,13.33
2018-08-23T22:45:35.739Z,19.43
2018-08-23T22:48:04.332Z,16.17
2018-08-23T22:50:32.898Z,14.73
2018-08-23T22:53:01.392Z,14.20
2018-08-23T22:55:30.005Z,13.13
2018-08-23T22:57:58.697Z,13.50
2018-08-23T23:00:32.559Z,14.93
2018-08-23T23:03:01.122Z,15.90
2018-08-23T23:05:29.667Z,17.97
2018-08-23T23:08:02.398Z,15.93
2018-08-23T23:10:31.024Z,14.77
2018-08-23T23:12:59.528Z,13.23
2018-08-23T23:15:28.034Z,18.03
2018-08-23T23:17:56.616Z,18.27
2018-08-23T23:20:25.768Z,16.90
2018-08-23T23:22:54.240Z,16.43
2018-08-23T23:25:22.940Z,17.67
2018-08-23T23:27:51.500Z,14.67
2018-08-23T23:30:20.034Z,21.93
2018-08-23T23:32:48.583Z,17.63
2018-08-23T23:35:17.223Z,16.07
2018-08-23T23:37:45.852Z,18.53
2018-08-23T23:40:14.432Z,15.67
2018-08-23T23:42:42.939Z,17.50
2018-08-23T23:45:11.467Z,24.67
2018-08-23T23:47:40.889Z,19.13
2018-08-23T23:50:09.361Z,22.53
2018-08-23T23:52:37.919Z,21.63
2018-08-23T23:55:06.453Z,22.03
2018-08-23T23:57:35.007Z,23.23
